createdAt,value
2018-07-17T06:01:58.279Z,33.6
2018-07-17T06:02:47.724Z,33.8
2018-07-17T06:03:38.095Z,33.9
2018-07-17T06:04:28.183Z,34.1
2018-07-17T06:05:18.205Z,34.2
2018-07-17T06:06:08.537Z,34.3
2018-07-17T06:06:58.333Z,34.4
2018-07-17T06:07:48.361Z,34.6
2018-07-17T06:08:38.743Z,34.8
2018-07-17T06:09:28.353Z,34.9
2018-07-17T06:10:19.793Z,35
2018-07-17T06:11:08.417Z,35.2
2018-07-17T06:11:58.735Z,35.4
2018-07-17T06:12:49.095Z,35.6
2018-07-17T06:13:38.850Z,35.8
2018-07-17T06:14:28.640Z,36.1
2018-07-17T06:15:18.980Z,36.3
2018-07-17T06:16:09.338Z,36.5
2018-07-17T06:16:59.483Z,36.4
2018-07-17T06:17:49.433Z,36.3
2018-07-17T06:18:39.537Z,36.2
2018-07-17T06:19:28.793Z,36.1
2018-07-17T06:20:19.772Z,36
2018-07-17T06:21:09.262Z,36
2018-07-17T06:21:59.789Z,36.1
2018-07-17T06:22:49.294Z,36.1
2018-07-17T06:23:39.017Z,36.3
2018-07-17T06:24:28.899Z,36.4
2018-07-17T06:25:19.798Z,36.6
2018-07-17T06:26:09.536Z,36.6
2018-07-17T06:26:59.624Z,36.6
2018-07-17T06:27:49.649Z,36.7
2018-07-17T06:28:40.269Z,36.6
2018-07-17T06:29:29.815Z,36.4
2018-07-17T06:30:19.886Z,36.3
2018-07-17T06:31:09.701Z,36.1
2018-07-17T06:31:59.978Z,36.1
2018-07-17T06:32:50.066Z,36.1
2018-07-17T06:33:40.446Z,36.1
2018-07-17T06:34:29.686Z,36.2
2018-07-17T06:35:20.001Z,36.4
2018-07-17T06:36:10.560Z,36.6
2018-07-17T06:37:00.374Z,36.9
2018-07-17T06:37:50.539Z,37.3
2018-07-17T06:38:40.843Z,37.2
2018-07-17T06:39:30.065Z,36.9
2018-07-17T06:40:20.876Z,36.7
2018-07-17T06:41:10.957Z,36.5
2018-07-17T06:42:01.037Z,36.4
2018-07-17T06:42:51.390Z,36.4
2018-07-17T06:43:40.910Z,36.4
2018-07-17T06:44:30.917Z,36.3
2018-07-17T06:45:21.314Z,36.2
2018-07-17T06:46:11.645Z,36.1
2018-07-17T06:47:01.433Z,35.9
2018-07-17T06:47:51.735Z,35.8
2018-07-17T06:48:41.325Z,35.7
2018-07-17T06:49:31.287Z,35.6
2018-07-17T06:50:23.326Z,35.5
2018-07-17T06:51:11.503Z,35.4
2018-07-17T06:52:01.554Z,35.4
2018-07-17T06:52:51.904Z,35.3
2018-07-17T06:53:41.462Z,35.3
2018-07-17T06:54:31.724Z,35.2
2018-07-17T06:55:22.324Z,35.1
2018-07-17T06:56:12.400Z,35.1
2018-07-17T06:57:02.477Z,34.9
2018-07-17T06:57:51.984Z,34.9
2018-07-17T06:58:42.354Z,34.9
2018-07-17T06:59:32.081Z,34.9
2018-07-17T07:00:22.721Z,34.9
2018-07-17T07:01:12.520Z,34.9
2018-07-17T07:02:02.600Z,34.9
2018-07-17T07:02:52.360Z,35
2018-07-17T07:03:42.450Z,35.1
2018-07-17T07:04:32.524Z,35.2
2018-07-17T07:05:23.181Z,35.3
2018-07-17T07:06:12.357Z,35.4
2018-07-17T07:07:02.710Z,35.5
2018-07-17T07:07:53.029Z,35.6
2018-07-17T07:08:42.505Z,35.7
2018-07-17T07:09:32.634Z,35.8
2018-07-17T07:10:23.254Z,35.8
2018-07-17T07:11:13.846Z,35.7
2018-07-17T07:12:03.339Z,35.6
2018-07-17T07:12:53.178Z,35.6
2018-07-17T07:13:43.203Z,35.5
2018-07-17T07:14:32.749Z,35.4
2018-07-17T07:15:23.337Z,35.3
2018-07-17T07:16:13.707Z,35.3
2018-07-17T07:17:03.249Z,35.2
2018-07-17T07:17:53.818Z,35.1
2018-07-17T07:18:43.591Z,35.1
2018-07-17T07:19:34.206Z,35.1
2018-07-17T07:20:24.084Z,35.1
2018-07-17T07:21:14.317Z,35.1
2018-07-17T07:22:04.453Z,35.1
2018-07-17T07:22:53.642Z,35.1
2018-07-17T07:23:44.010Z,35.1
2018-07-17T07:24:34.341Z,35.1
2018-07-17T07:25:23.896Z,35.1
2018-07-17T07:26:13.669Z,35
2018-07-17T07:27:04.506Z,35
2018-07-17T07:27:54.058Z,34.9
2018-07-17T07:28:45.007Z,34.9
2018-07-17T07:29:34.718Z,34.9
2018-07-17T07:30:24.182Z,34.9
2018-07-17T07:31:14.277Z,34.9
2018-07-17T07:32:04.643Z,34.9
2018-07-17T07:32:54.117Z,34.8
2018-07-17T07:33:44.476Z,34.8
2018-07-17T07:34:34.633Z,34.7
2018-07-17T07:35:24.902Z,34.6
2018-07-17T07:36:15.270Z,34.6
2018-07-17T07:37:05.075Z,34.4
2018-07-17T07:37:55.643Z,34.3
2018-07-17T07:38:44.854Z,34.3
2018-07-17T07:39:35.203Z,34.1
2018-07-17T07:40:25.525Z,34
2018-07-17T07:41:15.596Z,33.9
2018-07-17T07:42:05.109Z,33.9
2018-07-17T07:42:57.260Z,33.8
2018-07-17T07:43:45.971Z,33.7
2018-07-17T07:44:35.828Z,33.6
2018-07-17T07:45:25.943Z,33.6
2018-07-17T07:46:15.669Z,33.5
2018-07-17T07:47:05.781Z,33.4
2018-07-17T07:47:56.172Z,33.3
2018-07-17T07:48:45.548Z,33.3
2018-07-17T07:49:36.259Z,33.1
2018-07-17T07:50:26.041Z,33
2018-07-17T07:51:15.775Z,32.8
2018-07-17T07:52:06.702Z,32.7
2018-07-17T07:52:56.185Z,32.5
2018-07-17T07:53:46.787Z,32.4
2018-07-17T07:54:36.874Z,32.3
2018-07-17T07:55:26.508Z,32.2
2018-07-17T07:56:16.994Z,32.1
2018-07-17T07:57:06.533Z,31.9
2018-07-17T07:57:57.141Z,31.8
2018-07-17T07:58:46.080Z,31.7
2018-07-17T07:59:36.978Z,31.6
2018-07-17T08:00:26.576Z,31.6
2018-07-17T08:01:16.587Z,31.5
2018-07-17T08:02:07.443Z,31.4
2018-07-17T08:02:57.243Z,31.4
2018-07-17T08:03:48.383Z,31.3
2018-07-17T08:04:36.859Z,31.3
2018-07-17T08:05:27.124Z,31.3
2018-07-17T08:06:17.460Z,31.2
2018-07-17T08:07:07.020Z,31.1
2018-07-17T08:07:57.597Z,31
2018-07-17T08:08:47.693Z,30.9
2018-07-17T08:09:37.201Z,30.9
2018-07-17T08:10:26.975Z,30.8
2018-07-17T08:11:17.606Z,30.8
2018-07-17T08:12:08.454Z,30.7
2018-07-17T08:12:58.331Z,30.6
2018-07-17T08:13:47.824Z,30.6
2018-07-17T08:14:37.315Z,30.6
2018-07-17T08:15:28.468Z,30.5
2018-07-17T08:16:18.572Z,30.5
2018-07-17T08:17:08.363Z,30.4
2018-07-17T08:17:58.660Z,30.4
2018-07-17T08:18:48.440Z,30.4
2018-07-17T08:19:38.274Z,30.4
2018-07-17T08:20:28.115Z,30.3
2018-07-17T08:21:17.855Z,30.3
2018-07-17T08:22:08.481Z,30.3
2018-07-17T08:22:58.286Z,30.3
2018-07-17T08:23:48.071Z,30.2
2018-07-17T08:24:38.413Z,30.2
2018-07-17T08:25:29.206Z,30.1
2018-07-17T08:26:19.006Z,30.1
2018-07-17T08:27:08.856Z,30.1
2018-07-17T08:27:58.573Z,30.1
2018-07-17T08:28:49.207Z,30
2018-07-17T08:29:39.852Z,30
2018-07-17T08:30:29.041Z,30
2018-07-17T08:31:19.458Z,30
2018-07-17T08:32:09.476Z,30
2018-07-17T08:32:59.833Z,30
2018-07-17T08:33:49.622Z,29.9
2018-07-17T08:34:39.403Z,29.9
2018-07-17T08:35:29.762Z,29.9
2018-07-17T08:36:19.004Z,29.9
2018-07-17T08:37:09.585Z,29.9
2018-07-17T08:37:59.707Z,29.9
2018-07-17T08:38:49.420Z,29.9
2018-07-17T08:39:40.055Z,29.9
2018-07-17T08:40:30.174Z,29.9
2018-07-17T08:41:19.991Z,29.9
2018-07-17T08:42:09.963Z,29.9
2018-07-17T08:43:00.346Z,29.8
2018-07-17T08:43:50.653Z,29.8
2018-07-17T08:44:40.297Z,29.8
2018-07-17T08:45:29.988Z,29.8
2018-07-17T08:46:19.384Z,29.8
2018-07-17T08:47:10.662Z,29.8
2018-07-17T08:47:59.871Z,29.8
2018-07-17T08:48:50.113Z,29.7
2018-07-17T08:49:40.637Z,29.7
2018-07-17T08:50:30.418Z,29.7
2018-07-17T08:51:20.958Z,29.7
2018-07-17T08:52:10.473Z,29.7
2018-07-17T08:53:01.456Z,29.7
2018-07-17T08:53:51.167Z,29.7
2018-07-17T08:54:42.431Z,29.7
2018-07-17T08:55:31.627Z,29.6
2018-07-17T08:56:20.821Z,29.7
2018-07-17T08:57:11.407Z,29.6
2018-07-17T08:58:01.213Z,29.6
2018-07-17T08:58:51.253Z,29.6
2018-07-17T08:59:41.616Z,29.7
2018-07-17T09:00:32.561Z,29.6
2018-07-17T09:01:21.471Z,29.6
2018-07-17T09:02:11.507Z,29.6
2018-07-17T09:03:01.318Z,29.6
2018-07-17T09:03:51.619Z,29.6
2018-07-17T09:04:42.013Z,29.6
2018-07-17T09:05:31.832Z,29.6
2018-07-17T09:06:21.671Z,29.6
2018-07-17T09:07:11.711Z,29.6
2018-07-17T09:08:02.509Z,29.6
2018-07-17T09:08:52.609Z,29.6
2018-07-17T09:09:42.399Z,29.6
2018-07-17T09:10:32.440Z,29.6
2018-07-17T09:11:22.844Z,29.6
2018-07-17T09:12:12.040Z,29.6
2018-07-17T09:13:03.280Z,29.6
2018-07-17T09:13:52.747Z,29.6
2018-07-17T09:14:42.754Z,29.6
2018-07-17T09:15:32.647Z,29.6
2018-07-17T09:16:22.906Z,28.6
2018-07-17T09:17:12.087Z,34.7
2018-07-17T09:18:03.111Z,38.8
2018-07-17T09:18:53.397Z,39.1
2018-07-17T09:19:43.406Z,37.4
2018-07-17T09:20:32.639Z,35.8
2018-07-17T09:21:23.424Z,34.9
2018-07-17T09:22:13.352Z,35.1
2018-07-17T09:23:03.155Z,35.8
2018-07-17T09:23:53.229Z,36.6
2018-07-17T09:24:42.739Z,37.1
2018-07-17T09:25:33.355Z,37.1
2018-07-17T09:26:23.379Z,37.1
2018-07-17T09:27:13.696Z,37.1
2018-07-17T09:28:03.932Z,37.3
2018-07-17T09:28:53.688Z,37.5
2018-07-17T09:29:43.906Z,37.8
2018-07-17T09:30:33.963Z,37.9
2018-07-17T09:31:24.050Z,38
2018-07-17T09:32:14.377Z,38.2
2018-07-17T09:33:04.567Z,38.4
2018-07-17T09:33:53.956Z,38.7
2018-07-17T09:34:44.343Z,38.9
2018-07-17T09:35:33.893Z,39.1
2018-07-17T09:36:23.864Z,39.2
2018-07-17T09:37:13.975Z,39.4
2018-07-17T09:38:04.346Z,39.9
2018-07-17T09:38:55.132Z,40.3
2018-07-17T09:39:44.451Z,40.8
2018-07-17T09:40:34.555Z,41.2
2018-07-17T09:41:24.595Z,41.4
2018-07-17T09:42:14.687Z,41.8
2018-07-17T09:43:05.221Z,42.2
2018-07-17T09:43:55.259Z,42.8
2018-07-17T09:44:45.072Z,43.4
2018-07-17T09:45:35.432Z,43.9
2018-07-17T09:46:25.224Z,44.3
2018-07-17T09:47:15.620Z,44.9
2018-07-17T09:48:04.527Z,45.3
2018-07-17T09:48:55.142Z,45.8
2018-07-17T09:49:44.912Z,46.3
2018-07-17T09:50:35.524Z,46.6
2018-07-17T09:51:25.361Z,46.9
2018-07-17T09:52:15.136Z,47
2018-07-17T09:53:05.436Z,47.3
2018-07-17T09:53:55.505Z,47.6
2018-07-17T09:54:45.593Z,47.9
2018-07-17T09:55:35.656Z,48.1
2018-07-17T09:56:25.179Z,48.4
2018-07-17T09:57:16.378Z,48.6
2018-07-17T09:58:05.315Z,48.8
2018-07-17T09:58:56.213Z,49.1
2018-07-17T09:59:45.703Z,49.3
2018-07-17T10:00:36.320Z,49.4
2018-07-17T10:01:26.435Z,49.3
2018-07-17T10:02:16.805Z,49
2018-07-17T10:03:06.196Z,48.8
2018-07-17T10:03:56.855Z,48.7
2018-07-17T10:04:47.236Z,48
2018-07-17T10:05:36.982Z,47.1
2018-07-17T10:06:27.516Z,46.4
2018-07-17T10:07:16.312Z,46
2018-07-17T10:08:07.162Z,45.8
2018-07-17T10:08:56.931Z,45.6
2018-07-17T10:09:47.285Z,45.5
2018-07-17T10:10:37.040Z,45.3
2018-07-17T10:11:26.875Z,45.1
2018-07-17T10:12:16.951Z,44.7
2018-07-17T10:13:06.723Z,44.3
2018-07-17T10:13:57.430Z,43.9
2018-07-17T10:14:47.470Z,43.6
2018-07-17T10:15:37.284Z,43.4
2018-07-17T10:16:27.248Z,43.2
2018-07-17T10:17:17.956Z,43.1
2018-07-17T10:18:07.965Z,42.9
2018-07-17T10:18:57.736Z,42.8
2018-07-17T10:19:47.247Z,42.7
2018-07-17T10:20:37.284Z,42.6
2018-07-17T10:21:28.230Z,42.6
2018-07-17T10:22:18.001Z,42.6
2018-07-17T10:23:07.764Z,42.6
2018-07-17T10:23:57.793Z,42.6
2018-07-17T10:24:48.217Z,42.6
2018-07-17T10:25:37.987Z,42.7
2018-07-17T10:26:29.919Z,42.9
2018-07-17T10:27:18.055Z,43.1
2018-07-17T10:28:08.167Z,43.4
2018-07-17T10:28:58.227Z,43.8
2018-07-17T10:29:48.340Z,44.3
2018-07-17T10:30:38.586Z,44.5
2018-07-17T10:31:28.762Z,44.8
2018-07-17T10:32:19.460Z,44.9
2018-07-17T10:33:08.533Z,45.1
2018-07-17T10:33:58.890Z,45.3
2018-07-17T10:34:48.881Z,45.4
2018-07-17T10:35:39.273Z,45.3
2018-07-17T10:36:29.345Z,45.2
2018-07-17T10:37:19.375Z,45
2018-07-17T10:38:09.192Z,45.1
2018-07-17T10:38:59.577Z,45.3
2018-07-17T10:39:49.321Z,45.3
2018-07-17T10:40:39.692Z,45.4
2018-07-17T10:41:29.455Z,45.3
2018-07-17T10:42:19.802Z,45.3
2018-07-17T10:43:08.850Z,45.3
2018-07-17T10:43:59.939Z,45.4
2018-07-17T10:44:49.719Z,45.8
2018-07-17T10:45:39.237Z,46.6
2018-07-17T10:46:30.140Z,47.8
2018-07-17T10:47:20.180Z,48.8
2018-07-17T10:48:10.259Z,49.3
2018-07-17T10:48:59.766Z,49.3
2018-07-17T10:49:49.827Z,49.5
2018-07-17T10:50:40.174Z,49.9
2018-07-17T10:51:30.549Z,49.9
2018-07-17T10:52:20.016Z,49.6
2018-07-17T10:53:10.365Z,49.5
2018-07-17T10:54:00.165Z,49.4
2018-07-17T10:54:49.909Z,49.4
2018-07-17T10:55:40.556Z,49.6
2018-07-17T10:56:30.890Z,49.4
2018-07-17T10:57:20.670Z,49.1
2018-07-17T10:58:10.981Z,49.1
2018-07-17T10:59:01.110Z,49.3
2018-07-17T10:59:50.836Z,49.9
2018-07-17T11:00:40.373Z,50.3
2018-07-17T11:01:31.048Z,50.5
2018-07-17T11:02:21.292Z,50.3
2018-07-17T11:03:11.419Z,50.2
2018-07-17T11:04:01.437Z,50.4
2018-07-17T11:04:51.513Z,50.6
2018-07-17T11:05:41.081Z,50.8
2018-07-17T11:06:31.603Z,50.9
2018-07-17T11:07:21.440Z,51.1
2018-07-17T11:08:11.246Z,51.4
2018-07-17T11:09:51.366Z,52.6
2018-07-17T11:10:41.970Z,53.1
2018-07-17T11:11:31.476Z,53.4
2018-07-17T11:12:21.822Z,53.7
2018-07-17T11:13:11.888Z,53.9
2018-07-17T11:14:01.963Z,53.9
2018-07-17T11:14:52.376Z,54.1
2018-07-17T11:15:42.075Z,54.1
2018-07-17T11:16:31.891Z,53.8
2018-07-17T11:17:22.491Z,53.7
2018-07-17T11:18:11.728Z,53.6
2018-07-17T11:19:02.659Z,53.2
2018-07-17T11:20:42.751Z,51.9
2018-07-17T11:21:32.818Z,51.8
2018-07-17T11:22:22.091Z,51.7
2018-07-17T11:23:12.745Z,51.4
2018-07-17T11:24:02.213Z,51.1
2018-07-17T11:24:52.862Z,50.9
2018-07-17T11:25:42.128Z,50.8
2018-07-17T11:26:32.929Z,50.7
2018-07-17T11:27:21.701Z,50.7
2018-07-17T11:28:12.319Z,50.7
2018-07-17T11:29:03.428Z,50.8
2018-07-17T11:29:53.036Z,50.8
2018-07-17T11:30:43.056Z,50.9
2018-07-17T11:31:32.559Z,51.1
2018-07-17T11:32:22.907Z,51
2018-07-17T11:33:13.011Z,50.9
2018-07-17T11:34:02.792Z,50.8
2018-07-17T11:34:52.637Z,51.1
2018-07-17T11:35:43.429Z,51.6
2018-07-17T11:36:33.992Z,52
2018-07-17T11:38:13.402Z,52.3
2018-07-17T11:39:03.622Z,52
2018-07-17T11:39:53.677Z,52.3
2018-07-17T11:40:43.767Z,52.4
2018-07-17T11:41:33.526Z,52.3
2018-07-17T11:42:24.162Z,52
2018-07-17T11:43:13.962Z,51.7
2018-07-17T11:44:04.625Z,51.4
2018-07-17T11:44:54.615Z,51.3
2018-07-17T11:45:44.420Z,51.3
2018-07-17T11:46:34.487Z,51.3
2018-07-17T11:47:24.264Z,51.3
2018-07-17T11:48:14.854Z,51.1
2018-07-17T11:49:04.952Z,50.9
2018-07-17T11:49:54.769Z,50.6
2018-07-17T11:50:45.118Z,50.5
2018-07-17T11:51:34.868Z,50.4
2018-07-17T11:52:24.648Z,50.3
2018-07-17T11:53:15.919Z,50.3
2018-07-17T11:54:05.164Z,50.2
2018-07-17T11:54:55.166Z,50.1
2018-07-17T11:55:44.440Z,50.1
2018-07-17T11:56:35.051Z,50.1
2018-07-17T11:57:24.777Z,50.2
2018-07-17T11:58:14.853Z,50.3
2018-07-17T11:59:07.441Z,50.4
2018-07-17T11:59:54.982Z,50.5
2018-07-17T12:00:45.067Z,50.5
2018-07-17T12:01:35.963Z,50.5
2018-07-17T12:02:25.505Z,50.4
2018-07-17T12:03:16.109Z,50.3
2018-07-17T12:04:05.860Z,50.1
2018-07-17T12:04:55.923Z,49.9
2018-07-17T12:05:46.542Z,49.8
2018-07-17T12:06:36.042Z,49.6
2018-07-17T12:07:26.112Z,49.4
2018-07-17T12:08:16.188Z,49.2
2018-07-17T12:09:06.495Z,49
2018-07-17T12:09:55.784Z,48.8
2018-07-17T12:10:45.791Z,48.6
2018-07-17T12:11:36.411Z,48.4
2018-07-17T12:12:26.646Z,48.2
2018-07-17T12:13:16.802Z,48
2018-07-17T12:14:06.333Z,47.9
2018-07-17T12:14:56.942Z,47.9
2018-07-17T12:15:46.786Z,47.9
2018-07-17T12:16:36.237Z,47.9
2018-07-17T12:17:26.558Z,47.9
2018-07-17T12:18:16.641Z,47.8
2018-07-17T12:19:07.304Z,47.8
2018-07-17T12:19:57.923Z,47.8
2018-07-17T12:20:47.154Z,47.7
2018-07-17T12:21:36.632Z,47.7
2018-07-17T12:22:27.286Z,47.7
2018-07-17T12:23:16.762Z,47.8
2018-07-17T12:24:07.152Z,47.8
2018-07-17T12:24:57.716Z,47.9
2018-07-17T12:25:47.240Z,47.9
2018-07-17T12:26:37.371Z,47.8
2018-07-17T12:27:26.902Z,47.8
2018-07-17T12:28:17.256Z,47.7
2018-07-17T12:29:07.588Z,47.6
2018-07-17T12:29:57.397Z,47.5
2018-07-17T12:30:47.702Z,47.4
2018-07-17T12:31:37.760Z,47.3
2018-07-17T12:32:27.538Z,47.2
2018-07-17T12:33:17.599Z,47.1
2018-07-17T12:34:07.713Z,46.9
2018-07-17T12:34:57.975Z,46.9
2018-07-17T12:35:48.598Z,46.8
2018-07-17T12:36:37.876Z,46.7
2018-07-17T12:37:27.901Z,46.6
2018-07-17T12:38:18.859Z,46.5
2018-07-17T12:39:08.630Z,46.4
2018-07-17T12:39:58.641Z,46.3
2018-07-17T12:40:47.576Z,46.2
2018-07-17T12:41:39.014Z,46.1
2018-07-17T12:42:28.315Z,46
2018-07-17T12:43:18.615Z,46
2018-07-17T12:44:08.693Z,45.9
2018-07-17T12:44:58.460Z,45.8
2018-07-17T12:45:48.789Z,45.8
2018-07-17T12:46:39.186Z,45.7
2018-07-17T12:47:29.211Z,45.6
2018-07-17T12:48:19.018Z,45.5
2018-07-17T12:49:08.372Z,45.4
2018-07-17T12:49:59.927Z,45.4
2018-07-17T12:50:49.746Z,45.3
2018-07-17T12:51:39.243Z,45.3
2018-07-17T12:52:29.590Z,45.2
2018-07-17T12:53:19.925Z,45.1
2018-07-17T12:54:09.456Z,45.1
2018-07-17T12:54:58.954Z,45.1
2018-07-17T12:55:50.142Z,45.1
2018-07-17T12:56:39.947Z,45.3
2018-07-17T12:57:30.349Z,45.4
2018-07-17T12:58:19.884Z,45.4
2018-07-17T12:59:09.804Z,45.5
2018-07-17T12:59:59.064Z,45.5
2018-07-17T13:00:50.280Z,45.5
2018-07-17T13:01:39.771Z,45.5
2018-07-17T13:02:29.822Z,45.4
2018-07-17T13:03:20.157Z,45.4
2018-07-17T13:04:10.234Z,45.4
2018-07-17T13:05:00.036Z,45.3
2018-07-17T13:05:50.329Z,45.3
2018-07-17T13:06:40.426Z,45.1
2018-07-17T13:07:31.080Z,45
2018-07-17T13:08:20.556Z,44.9
2018-07-17T13:09:10.759Z,44.8
2018-07-17T13:10:00.974Z,44.6
2018-07-17T13:10:51.038Z,44.6
2018-07-17T13:11:41.115Z,44.5
2018-07-17T13:12:31.181Z,44.5
2018-07-17T13:13:21.465Z,44.5
2018-07-17T13:14:11.348Z,44.5
2018-07-17T13:15:01.641Z,44.5
2018-07-17T13:15:51.688Z,44.6
2018-07-17T13:16:41.461Z,44.6
2018-07-17T13:17:32.324Z,44.6
2018-07-17T13:18:21.355Z,44.7
2018-07-17T13:19:11.925Z,44.7
2018-07-17T13:20:02.004Z,44.8
2018-07-17T13:20:52.039Z,44.8
2018-07-17T13:21:42.077Z,44.9
2018-07-17T13:22:31.898Z,44.9
2018-07-17T13:23:22.248Z,44.9
2018-07-17T13:24:11.199Z,44.8
2018-07-17T13:25:01.842Z,44.8
2018-07-17T13:25:52.153Z,44.9
2018-07-17T13:26:42.521Z,44.9
2018-07-17T13:27:32.560Z,45.1
2018-07-17T13:28:22.338Z,45.2
2018-07-17T13:29:12.701Z,45.3
2018-07-17T13:30:02.818Z,45.4
2018-07-17T13:30:52.559Z,45.8
2018-07-17T13:31:42.906Z,46.1
2018-07-17T13:32:32.950Z,46.3
2018-07-17T13:33:22.761Z,46.3
2018-07-17T13:34:13.101Z,46.1
2018-07-17T13:35:02.897Z,45.9
2018-07-17T13:35:52.914Z,45.9
2018-07-17T13:36:43.309Z,45.9
2018-07-17T13:37:33.349Z,46
2018-07-17T13:38:22.610Z,45.9
2018-07-17T13:39:13.825Z,45.8
2018-07-17T13:40:03.307Z,45.7
2018-07-17T13:40:53.376Z,45.6
2018-07-17T13:41:43.698Z,45.6
2018-07-17T13:42:33.445Z,45.8
2018-07-17T13:43:23.817Z,46
2018-07-17T13:44:13.339Z,46
2018-07-17T13:45:03.453Z,45.8
2018-07-17T13:45:54.103Z,45.6
2018-07-17T13:46:43.258Z,45.4
2018-07-17T13:47:33.863Z,45.4
2018-07-17T13:48:23.638Z,45.4
2018-07-17T13:49:13.691Z,45.5
2018-07-17T13:50:04.367Z,45.6
2018-07-17T13:50:54.233Z,45.5
2018-07-17T13:51:44.519Z,45.4
2018-07-17T13:52:33.448Z,45.3
2018-07-17T13:53:24.644Z,45.2
2018-07-17T13:54:14.395Z,45.1
2018-07-17T13:55:03.903Z,45.1
2018-07-17T13:55:54.257Z,45.1
2018-07-17T13:56:44.293Z,45.2
2018-07-17T13:57:34.097Z,45.3
2018-07-17T13:58:24.435Z,45.3
2018-07-17T13:59:15.097Z,45.2
2018-07-17T14:00:06.375Z,45.1
2018-07-17T14:00:54.902Z,45.1
2018-07-17T14:01:44.729Z,45.2
2018-07-17T14:02:35.597Z,45.6
2018-07-17T14:03:25.062Z,46
2018-07-17T14:04:15.462Z,46.2
2018-07-17T14:05:05.239Z,46.1
2018-07-17T14:05:55.567Z,46
2018-07-17T14:06:45.431Z,45.9
2018-07-17T14:07:35.149Z,45.8
2018-07-17T14:08:25.203Z,45.6
2018-07-17T14:09:15.487Z,45.5
2018-07-17T14:10:05.330Z,45.3
2018-07-17T14:10:55.680Z,45.3
2018-07-17T14:11:44.728Z,45.2
2018-07-17T14:12:35.249Z,45.2
2018-07-17T14:13:25.953Z,45.2
2018-07-17T14:14:15.969Z,45.1
2018-07-17T14:15:06.361Z,45.1
2018-07-17T14:15:56.338Z,45.1
2018-07-17T14:16:45.354Z,45
2018-07-17T14:17:36.738Z,45
2018-07-17T14:18:26.031Z,44.9
2018-07-17T14:19:16.047Z,44.9
2018-07-17T14:20:06.380Z,44.9
2018-07-17T14:20:56.264Z,44.8
2018-07-17T14:21:46.528Z,44.7
2018-07-17T14:22:36.584Z,44.6
2018-07-17T14:23:26.101Z,44.4
2018-07-17T14:24:16.965Z,44.4
2018-07-17T14:25:06.788Z,44.3
2018-07-17T14:25:57.224Z,44.2
2018-07-17T14:26:46.354Z,44.1
2018-07-17T14:27:37.276Z,44
2018-07-17T14:28:27.423Z,43.9
2018-07-17T14:29:17.376Z,43.8
2018-07-17T14:30:07.110Z,43.8
2018-07-17T14:30:56.711Z,43.7
2018-07-17T14:31:47.646Z,43.6
2018-07-17T14:32:37.648Z,43.5
2018-07-17T14:33:27.136Z,43.4
2018-07-17T14:34:17.733Z,43.4
2018-07-17T14:35:07.566Z,43.3
2018-07-17T14:35:58.611Z,43.2
2018-07-17T14:36:47.430Z,43.1
2018-07-17T14:37:38.029Z,43.1
2018-07-17T14:38:27.213Z,43.1
2018-07-17T14:39:18.118Z,43.1
2018-07-17T14:40:08.198Z,43
2018-07-17T14:40:57.700Z,43
2018-07-17T14:41:48.341Z,42.9
2018-07-17T14:42:38.164Z,43
2018-07-17T14:43:28.458Z,43.1
2018-07-17T14:44:18.234Z,43
2018-07-17T14:45:08.007Z,43.1
2018-07-17T14:45:58.700Z,43.1
2018-07-17T14:46:48.203Z,43.1
2018-07-17T14:47:38.264Z,43.1
2018-07-17T14:48:28.832Z,43.1
2018-07-17T14:49:18.502Z,43.1
2018-07-17T14:50:08.512Z,43.1
2018-07-17T14:50:57.991Z,43.1
2018-07-17T14:51:48.881Z,43.1
2018-07-17T14:52:38.349Z,43.2
2018-07-17T14:53:29.354Z,43.2
2018-07-17T14:54:19.092Z,43.2
2018-07-17T14:55:09.368Z,43.3
2018-07-17T14:55:58.856Z,43.3
2018-07-17T14:56:49.562Z,43.3
2018-07-17T14:57:39.291Z,43.3
2018-07-17T14:58:29.584Z,43.2
2018-07-17T14:59:19.436Z,43.2
2018-07-17T15:00:09.829Z,43.1
2018-07-17T15:00:58.978Z,43.1
2018-07-17T15:01:49.564Z,43.1
2018-07-17T15:02:39.458Z,43
2018-07-17T15:03:29.729Z,42.9
2018-07-17T15:04:20.125Z,42.9
2018-07-17T15:05:10.115Z,42.8
2018-07-17T15:06:00.199Z,42.8
2018-07-17T15:06:49.730Z,42.8
2018-07-17T15:07:38.985Z,42.7
2018-07-17T15:08:29.999Z,42.7
2018-07-17T15:09:19.904Z,42.6
2018-07-17T15:10:09.430Z,42.6
2018-07-17T15:11:00.044Z,42.6
2018-07-17T15:11:50.119Z,42.6
2018-07-17T15:12:40.795Z,42.5
2018-07-17T15:13:30.772Z,42.4
2018-07-17T15:14:20.572Z,42.4
2018-07-17T15:15:10.633Z,42.4
2018-07-17T15:16:01.774Z,42.3
2018-07-17T15:16:51.107Z,42.3
2018-07-17T15:17:41.096Z,42.2
2018-07-17T15:18:30.367Z,42.1
2018-07-17T15:19:20.738Z,42.1
2018-07-17T15:20:11.039Z,42
2018-07-17T15:21:01.387Z,42
2018-07-17T15:21:50.666Z,41.9
2018-07-17T15:22:41.505Z,41.9
2018-07-17T15:23:30.787Z,41.9
2018-07-17T15:24:20.553Z,41.9
2018-07-17T15:25:11.137Z,41.9
2018-07-17T15:26:01.477Z,41.8
2018-07-17T15:26:51.289Z,41.8
2018-07-17T15:27:41.947Z,41.8
2018-07-17T15:28:31.406Z,41.7
2018-07-17T15:29:22.058Z,41.6
2018-07-17T15:30:11.765Z,41.5
2018-07-17T15:31:01.901Z,41.4
2018-07-17T15:31:51.087Z,41.4
2018-07-17T15:32:42.256Z,41.4
2018-07-17T15:33:31.797Z,41.3
2018-07-17T15:34:21.826Z,41.3
2018-07-17T15:35:13.374Z,41.2
2018-07-17T15:36:02.601Z,41.2
2018-07-17T15:36:52.068Z,41.1
2018-07-17T15:37:41.552Z,41.1
2018-07-17T15:38:33.153Z,41.1
2018-07-17T15:39:22.233Z,41.1
2018-07-17T15:40:12.824Z,41.1
2018-07-17T15:41:02.998Z,41.1
2018-07-17T15:41:52.663Z,41.1
2018-07-17T15:42:42.516Z,41
2018-07-17T15:43:32.268Z,41
2018-07-17T15:44:23.171Z,40.9
2018-07-17T15:45:13.236Z,40.9
2018-07-17T15:46:03.072Z,40.8
2018-07-17T15:46:53.356Z,40.8
2018-07-17T15:47:43.452Z,40.7
2018-07-17T15:48:32.734Z,40.6
2018-07-17T15:49:23.340Z,40.6
2018-07-17T15:50:13.094Z,40.5
2018-07-17T15:51:03.699Z,40.5
2018-07-17T15:51:53.734Z,40.4
2018-07-17T15:52:43.246Z,40.3
2018-07-17T15:53:33.633Z,40.3
2018-07-17T15:54:23.724Z,40.2
2018-07-17T15:55:13.448Z,40.1
2018-07-17T15:56:03.246Z,40
2018-07-17T15:56:53.562Z,39.8
2018-07-17T15:57:44.266Z,39.5
2018-07-17T15:58:33.675Z,39.3
2018-07-17T15:59:24.067Z,39.1
2018-07-17T16:00:14.411Z,38.8
2018-07-17T16:01:04.490Z,38.6
2018-07-17T16:01:54.232Z,38.4
2018-07-17T16:02:44.264Z,38.2
2018-07-17T16:03:34.322Z,38
2018-07-17T16:04:24.141Z,37.8
2018-07-17T16:05:14.515Z,37.7
2018-07-17T16:06:04.901Z,37.5
2018-07-17T16:06:54.874Z,37.4
2018-07-17T16:07:44.671Z,37.3
2018-07-17T16:08:35.095Z,37.1
2018-07-17T16:09:25.088Z,37
2018-07-17T16:10:15.388Z,36.9
2018-07-17T16:11:05.188Z,36.8
2018-07-17T16:11:55.304Z,36.7
2018-07-17T16:12:45.321Z,36.6
2018-07-17T16:13:37.693Z,36.5
2018-07-17T16:14:32.780Z,36.4
2018-07-17T16:15:15.509Z,36.3
2018-07-17T16:16:05.321Z,36.2
2018-07-17T16:16:55.671Z,36.1
2018-07-17T16:17:45.452Z,36.1
2018-07-17T16:18:35.244Z,36
2018-07-17T16:19:25.314Z,35.9
2018-07-17T16:20:15.848Z,35.9
2018-07-17T16:21:06.163Z,35.8
2018-07-17T16:21:55.564Z,35.7
2018-07-17T16:22:45.876Z,35.7
2018-07-17T16:23:36.186Z,35.6
2018-07-17T16:24:26.384Z,35.5
2018-07-17T16:25:16.041Z,35.4
2018-07-17T16:26:05.838Z,35.4
2018-07-17T16:26:56.174Z,35.3
2018-07-17T16:27:45.964Z,35.3
2018-07-17T16:28:35.741Z,35.3
2018-07-17T16:29:25.378Z,35.2
2018-07-17T16:30:16.422Z,35.1
2018-07-17T16:31:06.543Z,35.1
2018-07-17T16:31:56.619Z,35.1
2018-07-17T16:32:45.792Z,35
2018-07-17T16:33:36.690Z,34.9
2018-07-17T16:34:26.741Z,34.9
2018-07-17T16:35:16.892Z,34.9
2018-07-17T16:36:06.871Z,34.8
2018-07-17T16:36:57.129Z,34.8
2018-07-17T16:37:46.990Z,34.8
2018-07-17T16:38:37.050Z,34.8
2018-07-17T16:39:27.441Z,34.7
2018-07-17T16:40:17.499Z,34.7
2018-07-17T16:41:07.554Z,34.7
2018-07-17T16:41:57.547Z,34.6
2018-07-17T16:42:47.719Z,34.6
2018-07-17T16:43:37.447Z,34.6
2018-07-17T16:44:27.776Z,34.6
2018-07-17T16:45:17.834Z,34.5
2018-07-17T16:46:07.908Z,34.5
2018-07-17T16:46:57.685Z,34.4
2018-07-17T16:47:47.283Z,34.4
2018-07-17T16:48:37.536Z,34.4
2018-07-17T16:49:26.900Z,34.4
2018-07-17T16:50:18.241Z,34.3
2018-07-17T16:51:08.316Z,34.3
2018-07-17T16:51:57.319Z,34.3
2018-07-17T16:52:48.449Z,34.3
2018-07-17T16:53:37.926Z,34.3
2018-07-17T16:54:28.573Z,34.3
2018-07-17T16:55:17.865Z,34.3
2018-07-17T16:56:08.418Z,34.2
2018-07-17T16:56:58.510Z,34.2
2018-07-17T16:57:47.996Z,34.2
2018-07-17T16:58:38.376Z,34.2
2018-07-17T16:59:28.393Z,34.2
2018-07-17T17:00:18.995Z,34.2
2018-07-17T17:01:08.614Z,34.2
2018-07-17T17:01:59.157Z,34.2
2018-07-17T17:02:49.279Z,34.1
2018-07-17T17:03:39.256Z,34.1
2018-07-17T17:04:29.037Z,34.1
2018-07-17T17:05:18.617Z,34.1
2018-07-17T17:06:09.209Z,34.1
2018-07-17T17:06:59.508Z,34.1
2018-07-17T17:07:49.275Z,34.1
2018-07-17T17:08:39.619Z,34.1
2018-07-17T17:09:29.159Z,34.1
2018-07-17T17:10:19.482Z,34
2018-07-17T17:11:09.660Z,34.1
2018-07-17T17:11:59.064Z,34
2018-07-17T17:12:49.930Z,34
2018-07-17T17:13:40.065Z,34